Time;durP1;ratioP1;P1;durP2;ratioP2;P2;SDS_P1;SDS_P2;PMS_P1;PMS_P2;Temp;Humidity;BMP_temperature;BMP_pressure;BME280_temperature;BME280_humidity;BME280_pressure;Samples;Min_cycle;Max_cycle;Signal;HPM_P1;HPM_P2
2023/06/11 00:01:51;;;;;;;2.55;0.60;;;;;;;18.86;34.32;102495.31;5114081;28;20020;-66
2023/06/11 00:04:25;;;;;;;1.80;0.70;;;;;;;18.97;34.55;102525.53;5115871;28;20475;-66
2023/06/11 00:06:53;;;;;;;0.93;0.60;;;;;;;18.81;34.62;102506.00;5100350;28;20048;-66
2023/06/11 00:09:22;;;;;;;1.00;0.60;;;;;;;18.83;34.69;102539.38;5117301;28;20070;-66
2023/06/11 00:11:48;;;;;;;1.77;0.60;;;;;;;18.76;34.60;102533.94;5115932;28;20106;-66
2023/06/11 00:14:13;;;;;;;2.53;0.60;;;;;;;18.75;34.75;102543.19;5098366;28;20107;-66
2023/06/11 00:16:40;;;;;;;1.40;0.65;;;;;;;18.68;34.93;102540.41;5115702;28;20499;-66
2023/06/11 00:19:06;;;;;;;2.28;0.50;;;;;;;18.50;35.19;102518.41;5114170;28;20106;-66
2023/06/11 00:21:32;;;;;;;2.05;0.60;;;;;;;18.55;35.22;102544.00;5114343;28;20559;-66
2023/06/11 00:23:58;;;;;;;3.38;0.98;;;;;;;18.50;35.33;102545.66;5116431;28;20358;-66
2023/06/11 00:26:25;;;;;;;0.88;0.63;;;;;;;18.45;35.37;102546.28;5115589;28;20472;-67
2023/06/11 00:28:51;;;;;;;1.23;0.60;;;;;;;18.40;35.58;102547.97;5116371;28;20050;-67
2023/06/11 00:31:16;;;;;;;1.58;1.00;;;;;;;18.34;35.55;102549.63;5116215;28;20035;-66
2023/06/11 00:33:42;;;;;;;0.68;0.60;;;;;;;18.29;35.46;102547.53;5117231;28;20027;-66
2023/06/11 00:36:07;;;;;;;1.58;0.60;;;;;;;18.23;35.60;102547.53;5115304;28;20036;-66
2023/06/11 00:38:33;;;;;;;1.27;0.73;;;;;;;18.05;35.58;102537.25;5116836;28;20509;-66
2023/06/11 00:40:58;;;;;;;2.30;0.50;;;;;;;18.08;35.68;102551.28;5115579;28;20049;-66
2023/06/11 00:43:24;;;;;;;2.13;0.80;;;;;;;18.13;35.64;102552.53;5115586;28;20040;-66
2023/06/11 00:45:51;;;;;;;1.50;0.88;;;;;;;18.13;35.60;102558.81;5098605;28;20022;-66
2023/06/11 00:48:20;;;;;;;2.53;0.63;;;;;;;18.10;35.64;102561.97;5114471;28;20023;-66
2023/06/11 00:50:50;;;;;;;3.38;0.63;;;;;;;18.03;35.84;102566.56;5113334;28;20122;-66
2023/06/11 00:53:17;;;;;;;0.98;0.50;;;;;;;17.93;35.79;102568.84;5115789;28;20035;-66
2023/06/11 00:55:44;;;;;;;2.45;0.60;;;;;;;17.81;35.82;102553.09;5115958;28;20028;-66
2023/06/11 00:58:13;;;;;;;2.70;0.68;;;;;;;17.95;35.97;102569.50;5098472;28;20508;-66
2023/06/11 01:00:49;;;;;;;1.08;0.60;;;;;;;17.94;35.89;102570.50;5116363;28;20063;-66
2023/06/11 01:03:17;;;;;;;0.70;0.60;;;;;;;17.90;36.06;102574.69;5116102;28;20024;-66
2023/06/11 01:06:12;;;;;;;0.80;0.57;;;;;;;17.78;36.22;102578.03;5114775;28;20026;-66
2023/06/11 01:08:39;;;;;;;1.67;0.50;;;;;;;17.73;36.17;102561.41;5115861;28;20126;-66
2023/06/11 01:11:09;;;;;;;1.88;0.63;;;;;;;17.72;36.23;102567.06;5114500;28;20042;-66
2023/06/11 01:13:38;;;;;;;2.15;0.63;;;;;;;17.65;36.26;102568.91;5116508;28;20031;-67
2023/06/11 01:16:11;;;;;;;1.48;0.70;;;;;;;17.59;36.60;102570.56;5114492;28;20032;-66
2023/06/11 01:18:48;;;;;;;2.35;0.65;;;;;;;17.57;36.48;102580.81;5116940;28;20068;-66
2023/06/11 01:21:19;;;;;;;3.85;0.68;;;;;;;17.51;36.59;102582.44;5114870;28;20138;-65
2023/06/11 01:24:17;;;;;;;2.80;0.80;;;;;;;17.42;36.93;102582.81;5112628;28;20064;-66
2023/06/11 01:27:10;;;;;;;0.82;0.60;;;;;;;17.36;37.00;102588.03;5115660;28;20054;-65
2023/06/11 01:29:38;;;;;;;0.60;0.50;;;;;;;17.29;37.09;102579.00;5117495;28;20031;-66
2023/06/11 01:32:04;;;;;;;0.85;0.50;;;;;;;17.29;37.00;102575.44;5115475;28;20114;-66
2023/06/11 01:34:31;;;;;;;2.08;0.63;;;;;;;17.09;37.12;102569.88;5098364;28;20057;-66
2023/06/11 01:36:57;;;;;;;1.27;0.60;;;;;;;17.18;37.38;102576.81;5116257;28;20027;-65
2023/06/11 01:39:23;;;;;;;2.30;0.70;;;;;;;17.24;37.25;102583.34;5114592;28;20062;-66
2023/06/11 01:41:48;;;;;;;2.47;0.55;;;;;;;17.18;37.20;102585.00;5097808;28;20032;-66
2023/06/11 01:44:14;;;;;;;1.77;1.00;;;;;;;17.13;37.59;102590.22;5115822;28;20041;-66
2023/06/11 01:46:39;;;;;;;2.60;0.52;;;;;;;17.13;37.47;102596.47;5114638;28;20092;-66
2023/06/11 01:49:05;;;;;;;3.53;0.80;;;;;;;17.10;37.51;102598.75;5114805;28;20160;-66
2023/06/11 01:51:30;;;;;;;1.48;0.90;;;;;;;17.06;37.55;102598.31;5114650;28;20161;-67
2023/06/11 01:53:56;;;;;;;1.52;0.63;;;;;;;17.03;37.73;102601.44;5114537;28;20034;-66
2023/06/11 01:56:22;;;;;;;1.05;0.52;;;;;;;16.97;37.92;102601.38;5114882;28;20032;-66
2023/06/11 01:58:47;;;;;;;4.85;0.70;;;;;;;16.80;38.18;102579.94;5115943;28;20376;-66
2023/06/11 02:01:13;;;;;;;0.60;0.60;;;;;;;16.87;38.28;102599.84;5115635;28;20114;-66
2023/06/11 02:03:41;;;;;;;2.83;0.80;;;;;;;16.86;38.42;102609.03;5114286;28;20454;-66
2023/06/11 02:06:08;;;;;;;3.88;0.80;;;;;;;16.81;38.34;102606.06;5112509;28;20073;-66
2023/06/11 02:08:33;;;;;;;1.33;0.60;;;;;;;16.74;38.53;102602.41;5114218;28;20076;-66
2023/06/11 02:10:58;;;;;;;2.90;0.70;;;;;;;16.68;38.66;102605.91;5114040;28;20032;-65
2023/06/11 02:13:30;;;;;;;1.88;0.73;;;;;;;16.62;38.67;102601.25;5116658;28;20251;-66
2023/06/11 02:15:56;;;;;;;1.48;0.70;;;;;;;16.61;38.67;102599.59;5117731;28;20095;-66
2023/06/11 02:18:21;;;;;;;3.65;0.70;;;;;;;16.60;38.92;102601.47;5101137;28;20061;-66
2023/06/11 02:20:47;;;;;;;0.93;0.70;;;;;;;16.62;39.00;102596.69;5117570;28;20055;-65
2023/06/11 02:23:12;;;;;;;1.48;0.57;;;;;;;16.60;38.92;102587.03;5117724;28;20047;-66
2023/06/11 02:25:38;;;;;;;2.40;0.70;;;;;;;16.53;39.01;102594.31;5115866;28;20186;-66
2023/06/11 02:28:05;;;;;;;3.63;0.70;;;;;;;16.52;39.29;102600.75;5100475;28;20030;-66
2023/06/11 02:30:30;;;;;;;1.75;0.70;;;;;;;16.50;39.47;102600.13;5118462;28;20031;-66
2023/06/11 02:32:56;;;;;;;1.33;0.70;;;;;;;16.51;39.23;102594.47;5118821;28;20019;-66
2023/06/11 02:35:21;;;;;;;1.52;0.70;;;;;;;16.55;39.19;102595.75;5119138;28;20038;-66
2023/06/11 02:37:47;;;;;;;2.65;0.80;;;;;;;16.73;38.92;102602.63;5116946;28;20047;-66
2023/06/11 02:40:12;;;;;;;1.70;0.73;;;;;;;17.09;38.76;102597.09;5116719;28;20126;-66
2023/06/11 02:42:37;;;;;;;0.98;0.60;;;;;;;17.47;38.03;102600.22;5116760;28;20023;-66
2023/06/11 02:45:03;;;;;;;1.30;0.63;;;;;;;17.79;37.49;102608.81;5116851;28;20524;-66
2023/06/11 02:47:29;;;;;;;4.95;0.80;;;;;;;18.14;37.13;102608.69;5117451;28;20059;-66
2023/06/11 02:49:55;;;;;;;1.58;0.60;;;;;;;18.40;36.74;102606.03;5117424;28;20036;-66
2023/06/11 02:52:20;;;;;;;1.35;0.70;;;;;;;18.67;36.63;102606.88;5119041;28;20035;-66
2023/06/11 02:54:45;;;;;;;1.85;0.63;;;;;;;18.97;36.09;102603.78;5117859;28;20027;-66
2023/06/11 02:57:11;;;;;;;1.45;0.80;;;;;;;19.18;35.78;102606.28;5117152;28;20052;-66
2023/06/11 02:59:36;;;;;;;1.15;0.60;;;;;;;19.48;35.46;102609.34;5100146;28;20392;-66
2023/06/11 03:02:02;;;;;;;2.45;0.70;;;;;;;19.76;35.01;102607.38;5118673;28;20043;-66
2023/06/11 03:04:27;;;;;;;2.63;0.70;;;;;;;19.92;34.90;102610.47;5116996;28;20042;-66
2023/06/11 03:06:53;;;;;;;1.85;0.77;;;;;;;20.00;34.78;102606.66;5117069;28;20475;-66
2023/06/11 03:09:18;;;;;;;1.60;0.73;;;;;;;19.92;34.86;102585.03;5100100;28;20032;-66
2023/06/11 03:11:43;;;;;;;1.45;0.70;;;;;;;20.23;34.49;102588.84;5118972;28;20084;-66
2023/06/11 03:14:09;;;;;;;3.25;0.60;;;;;;;20.68;34.29;102603.28;5117088;28;20032;-66
2023/06/11 03:16:34;;;;;;;1.10;0.60;;;;;;;20.90;33.79;102602.91;5117032;28;20062;-66
2023/06/11 03:19:00;;;;;;;1.33;0.95;;;;;;;20.87;33.96;102591.34;5116607;28;20511;-66
2023/06/11 03:21:25;;;;;;;1.30;0.63;;;;;;;21.24;33.58;102609.72;5099805;28;20059;-66
2023/06/11 03:23:51;;;;;;;2.28;0.70;;;;;;;21.14;33.78;102612.13;5116213;28;20035;-66
2023/06/11 03:26:16;;;;;;;1.27;0.75;;;;;;;21.35;33.32;102609.00;5116583;28;20036;-66
2023/06/11 03:28:42;;;;;;;3.05;0.80;;;;;;;21.31;33.61;102597.63;5119987;28;20054;-66
2023/06/11 03:31:07;;;;;;;1.38;0.70;;;;;;;21.60;33.17;102613.56;5119004;28;20110;-66
2023/06/11 03:33:32;;;;;;;3.47;0.63;;;;;;;21.74;33.06;102610.44;5117814;28;20027;-66
2023/06/11 03:35:58;;;;;;;0.85;0.50;;;;;;;22.02;32.73;102604.38;5115726;28;20066;-66
2023/06/11 03:38:23;;;;;;;2.35;0.60;;;;;;;22.10;32.53;102613.34;5116225;28;20031;-66
2023/06/11 03:40:49;;;;;;;1.10;0.75;;;;;;;22.57;32.13;102617.09;5115476;28;20027;-66
2023/06/11 03:43:15;;;;;;;1.35;0.70;;;;;;;22.51;32.00;102612.53;5099607;28;20038;-67
2023/06/11 03:45:40;;;;;;;1.50;0.70;;;;;;;21.95;32.70;102603.63;5117290;28;20468;-67
2023/06/11 03:48:07;;;;;;;3.63;0.73;;;;;;;22.60;31.91;102610.28;5113844;28;20059;-66
2023/06/11 03:50:33;;;;;;;2.75;0.70;;;;;;;22.71;31.90;102606.72;5114592;28;20023;-66
2023/06/11 03:52:58;;;;;;;1.55;0.60;;;;;;;22.73;31.75;102605.41;5117755;28;20436;-66
2023/06/11 03:55:24;;;;;;;2.42;0.70;;;;;;;22.71;31.69;102614.94;5116468;28;20038;-66
2023/06/11 03:57:50;;;;;;;1.52;0.75;;;;;;;22.59;31.70;102592.16;5097743;28;20085;-66
2023/06/11 04:00:15;;;;;;;1.95;0.80;;;;;;;22.40;31.91;102613.34;5116492;28;20039;-66
2023/06/11 04:02:41;;;;;;;1.15;0.80;;;;;;;22.72;31.43;102608.41;5116324;28;20055;-66
2023/06/11 04:05:06;;;;;;;2.42;0.80;;;;;;;22.75;31.51;102607.94;5116718;28;20027;-66
2023/06/11 04:07:32;;;;;;;3.22;0.82;;;;;;;23.58;30.40;102608.75;5099173;28;20032;-66
2023/06/11 04:09:57;;;;;;;1.35;0.70;;;;;;;24.03;29.93;102599.78;5117475;28;20028;-66
2023/06/11 04:12:23;;;;;;;1.02;0.73;;;;;;;24.07;29.95;102600.94;5115920;28;20036;-66
2023/06/11 04:14:48;;;;;;;1.88;0.60;;;;;;;24.20;29.75;102595.13;5116538;28;20035;-66
2023/06/11 04:17:14;;;;;;;1.33;0.73;;;;;;;24.54;29.29;102586.97;5115560;28;20035;-67
2023/06/11 04:19:39;;;;;;;2.33;0.70;;;;;;;24.37;29.38;102597.91;5115667;28;20047;-66
2023/06/11 04:22:05;;;;;;;2.75;0.60;;;;;;;24.06;30.01;102597.38;5115676;28;20066;-66
2023/06/11 04:24:30;;;;;;;2.35;0.73;;;;;;;24.52;29.25;102591.88;5115106;28;20056;-66
2023/06/11 04:26:56;;;;;;;3.00;0.90;;;;;;;24.94;29.00;102592.28;5115254;28;20027;-66
2023/06/11 04:29:23;;;;;;;2.05;1.17;;;;;;;24.70;29.02;102597.16;5116250;28;20033;-66
2023/06/11 04:31:50;;;;;;;2.38;0.80;;;;;;;25.03;28.86;102600.94;5115810;28;20122;-66
2023/06/11 04:34:18;;;;;;;1.58;0.65;;;;;;;25.12;28.69;102604.97;5117006;28;20127;-73
2023/06/11 04:36:44;;;;;;;3.53;0.90;;;;;;;24.60;29.16;102596.97;5116516;28;20026;-66
2023/06/11 04:39:09;;;;;;;1.13;0.70;;;;;;;23.75;30.08;102595.13;5098696;28;20118;-66
2023/06/11 04:41:37;;;;;;;2.67;0.85;;;;;;;24.59;28.89;102584.28;5112968;28;20176;-66
2023/06/11 04:44:03;;;;;;;2.08;0.70;;;;;;;24.68;29.07;102593.81;5113148;28;20116;-66
2023/06/11 04:46:29;;;;;;;1.77;1.00;;;;;;;24.30;29.19;102597.25;5116463;28;20019;-66
2023/06/11 04:48:59;;;;;;;5.45;0.90;;;;;;;24.23;29.29;102591.06;5116294;28;20039;-66
2023/06/11 04:51:28;;;;;;;3.63;0.70;;;;;;;24.56;29.24;102593.03;5127063;28;20030;-73
2023/06/11 04:53:57;;;;;;;2.65;0.52;;;;;;;23.79;29.91;102586.13;5117652;28;20024;-67
2023/06/11 04:56:23;;;;;;;1.35;0.70;;;;;;;24.23;29.45;102586.38;5115631;28;20134;-66
2023/06/11 04:58:49;;;;;;;3.35;0.82;;;;;;;24.48;29.24;102565.97;5115910;28;20058;-66
2023/06/11 05:01:15;;;;;;;2.97;0.73;;;;;;;25.00;29.07;102579.41;5116903;28;20043;-67
2023/06/11 05:03:40;;;;;;;0.95;0.80;;;;;;;24.40;29.42;102580.91;5116909;28;20467;-66
2023/06/11 05:06:08;;;;;;;3.63;0.82;;;;;;;24.35;29.58;102581.66;5116378;28;20035;-67
2023/06/11 05:08:34;;;;;;;1.02;0.70;;;;;;;23.84;30.19;102580.75;5114588;28;20037;-66
2023/06/11 05:10:59;;;;;;;3.13;0.77;;;;;;;24.05;29.94;102581.94;5114498;28;20443;-66
2023/06/11 05:13:25;;;;;;;0.80;0.70;;;;;;;23.06;31.12;102576.56;5114256;28;20031;-66
2023/06/11 05:15:55;;;;;;;2.17;0.90;;;;;;;22.79;31.38;102565.22;5111807;28;20028;-66
2023/06/11 05:18:22;;;;;;;1.13;0.82;;;;;;;22.80;31.60;102569.63;5113823;28;20030;-67
2023/06/11 05:20:50;;;;;;;1.75;0.95;;;;;;;22.88;31.47;102574.78;5113710;28;20071;-66
2023/06/11 05:23:16;;;;;;;1.60;0.73;;;;;;;22.54;31.68;102568.16;5113652;28;20024;-67
2023/06/11 05:25:50;;;;;;;1.30;0.70;;;;;;;22.44;31.98;102565.19;5114483;28;20023;-68
2023/06/11 05:28:15;;;;;;;2.80;0.68;;;;;;;21.85;32.74;102570.44;5097141;28;20031;-67
2023/06/11 05:30:45;;;;;;;1.40;0.80;;;;;;;22.08;32.62;102571.59;5116235;28;20046;-66
2023/06/11 05:33:13;;;;;;;2.67;0.80;;;;;;;22.03;32.46;102573.16;5113768;28;20452;-67
2023/06/11 05:35:40;;;;;;;1.45;0.80;;;;;;;22.21;32.57;102572.28;5115669;28;20032;-66
2023/06/11 05:38:09;;;;;;;1.15;0.70;;;;;;;22.27;32.21;102567.75;5117318;28;20023;-67
2023/06/11 05:40:36;;;;;;;1.38;0.90;;;;;;;21.90;32.72;102567.84;5111289;28;20114;-67
2023/06/11 05:43:05;;;;;;;2.53;0.75;;;;;;;22.57;32.01;102573.19;5112085;28;20119;-66
2023/06/11 05:45:32;;;;;;;2.65;0.65;;;;;;;22.21;32.60;102579.66;5113204;28;20030;-66
2023/06/11 05:47:58;;;;;;;0.93;0.70;;;;;;;22.09;32.78;102574.13;5116767;28;20036;-66
2023/06/11 05:50:23;;;;;;;2.83;0.70;;;;;;;22.37;32.43;102576.25;5126821;28;20010;-68
2023/06/11 05:52:49;;;;;;;1.08;0.70;;;;;;;22.48;32.33;102571.84;5117525;28;20087;-66
2023/06/11 05:55:14;;;;;;;3.53;0.80;;;;;;;22.43;32.43;102574.47;5133389;28;20035;-67
2023/06/11 05:57:40;;;;;;;1.55;0.90;;;;;;;22.23;32.59;102578.38;5136112;28;20036;-71
2023/06/11 06:00:07;;;;;;;1.95;0.70;;;;;;;22.43;32.49;102564.34;5135181;28;20039;-68
2023/06/11 06:02:32;;;;;;;1.33;0.70;;;;;;;22.20;32.64;102558.81;5136762;28;20032;-67
2023/06/11 06:04:58;;;;;;;2.67;0.70;;;;;;;22.20;32.70;102578.00;5136380;28;20026;-67
2023/06/11 06:07:23;;;;;;;2.17;0.80;;;;;;;22.67;32.29;102578.09;5136315;28;20452;-68
2023/06/11 06:09:49;;;;;;;2.35;0.70;;;;;;;23.14;31.95;102565.22;5126760;28;20028;-66
2023/06/11 06:12:15;;;;;;;2.78;0.80;;;;;;;23.36;31.40;102562.69;5097424;28;20032;-67
2023/06/11 06:14:41;;;;;;;2.80;0.80;;;;;;;23.26;31.67;102567.97;5116218;28;20059;-67
2023/06/11 06:17:06;;;;;;;2.55;0.70;;;;;;;22.73;32.26;102568.91;5119172;28;20034;-67
2023/06/11 06:19:32;;;;;;;6.82;0.90;;;;;;;23.02;32.01;102569.06;5118985;28;20032;-67
2023/06/11 06:21:57;;;;;;;2.88;0.70;;;;;;;23.00;32.19;102565.72;5125002;28;20060;-69
2023/06/11 06:24:22;;;;;;;2.17;0.73;;;;;;;23.10;31.84;102560.47;5133403;28;20019;-68
2023/06/11 06:26:56;;;;;;;4.47;1.00;;;;;;;22.45;32.75;102548.50;5121999;28;20493;-68
2023/06/11 06:29:25;;;;;;;3.08;0.85;;;;;;;22.83;32.28;102560.09;5120234;28;20038;-68
2023/06/11 06:31:51;;;;;;;3.20;1.08;;;;;;;23.42;31.77;102558.97;5121017;28;20034;-68
2023/06/11 06:34:17;;;;;;;2.17;0.80;;;;;;;22.71;32.22;102551.84;5115218;28;20031;-68
2023/06/11 06:36:42;;;;;;;4.20;1.10;;;;;;;23.28;31.89;102549.34;5095495;28;20067;-68
2023/06/11 06:39:08;;;;;;;5.13;0.88;;;;;;;23.57;31.47;102550.19;5096605;28;20619;-67
2023/06/11 06:41:33;;;;;;;3.55;0.85;;;;;;;23.89;31.38;102542.34;5099753;28;20028;-67
2023/06/11 06:43:59;;;;;;;4.30;1.00;;;;;;;23.31;31.87;102548.84;5101309;28;20024;-72
2023/06/11 06:46:25;;;;;;;3.30;1.20;;;;;;;23.20;31.90;102555.19;5110430;28;20043;-68
2023/06/11 06:48:51;;;;;;;3.03;0.85;;;;;;;23.20;31.83;102552.44;5114310;28;20034;-68
2023/06/11 06:51:19;;;;;;;3.58;0.75;;;;;;;23.16;31.89;102554.00;5115352;28;20040;-67
2023/06/11 06:53:46;;;;;;;2.20;0.90;;;;;;;23.57;31.62;102550.19;5102208;28;20141;-67
2023/06/11 06:56:11;;;;;;;2.35;0.80;;;;;;;23.75;31.26;102553.88;5119881;28;20034;-67
2023/06/11 06:58:38;;;;;;;2.03;0.93;;;;;;;23.33;31.55;102565.91;5118524;28;20027;-67
2023/06/11 07:01:03;;;;;;;1.67;0.90;;;;;;;23.42;31.38;102556.22;5118170;27;20031;-67
2023/06/11 07:03:28;;;;;;;3.28;0.90;;;;;;;24.00;30.77;102568.09;5116785;28;20039;-66
2023/06/11 07:05:54;;;;;;;4.18;0.82;;;;;;;23.59;31.44;102560.94;5118417;28;20114;-67
2023/06/11 07:08:20;;;;;;;3.42;0.93;;;;;;;23.62;31.50;102560.47;5116538;28;20034;-66
2023/06/11 07:10:51;;;;;;;4.72;1.02;;;;;;;22.76;32.04;102560.22;5116823;28;20027;-66
2023/06/11 07:13:16;;;;;;;4.13;0.90;;;;;;;22.98;31.82;102564.06;5118529;28;20039;-66
2023/06/11 07:15:42;;;;;;;1.50;0.80;;;;;;;22.93;31.90;102552.13;5117969;28;20036;-66
2023/06/11 07:18:08;;;;;;;3.75;0.90;;;;;;;22.76;31.25;102560.22;5118324;28;20024;-66
2023/06/11 07:20:34;;;;;;;3.13;0.80;;;;;;;22.94;31.02;102562.00;5117150;28;20046;-67
2023/06/11 07:22:59;;;;;;;4.10;0.95;;;;;;;23.79;30.20;102561.38;5118683;28;20115;-66
2023/06/11 07:25:28;;;;;;;4.07;1.20;;;;;;;24.00;29.85;102553.50;5117915;28;20063;-66
2023/06/11 07:27:55;;;;;;;2.40;1.00;;;;;;;24.33;29.77;102563.72;5113639;28;20024;-67
2023/06/11 07:30:20;;;;;;;3.17;1.10;;;;;;;24.17;28.92;102556.28;5117554;27;20124;-66
2023/06/11 07:32:46;;;;;;;4.47;1.30;;;;;;;24.05;28.66;102561.88;5116455;28;20437;-66
2023/06/11 07:35:12;;;;;;;3.78;1.10;;;;;;;23.73;29.12;102540.38;5114305;28;20261;-66
2023/06/11 07:37:37;;;;;;;1.27;0.85;;;;;;;24.25;28.72;102553.97;5114713;28;20390;-68
2023/06/11 07:40:05;;;;;;;3.67;0.90;;;;;;;24.48;28.50;102560.44;5119393;28;20032;-67
2023/06/11 07:42:31;;;;;;;8.15;1.00;;;;;;;24.11;28.27;102558.13;5119155;28;20033;-68
2023/06/11 07:44:56;;;;;;;4.10;1.02;;;;;;;24.52;27.62;102554.19;5116992;28;20085;-69
2023/06/11 07:47:21;;;;;;;1.83;1.08;;;;;;;25.02;26.73;102558.78;5117785;28;20035;-67
2023/06/11 07:49:47;;;;;;;1.95;1.13;;;;;;;25.15;27.04;102559.56;5118107;28;20079;-67
2023/06/11 07:52:12;;;;;;;3.13;1.00;;;;;;;25.26;26.72;102564.09;5117722;27;20087;-67
2023/06/11 07:54:38;;;;;;;2.45;0.90;;;;;;;25.11;26.81;102564.72;5117367;28;20035;-67
2023/06/11 07:57:06;;;;;;;1.48;1.05;;;;;;;25.20;27.25;102568.72;5117311;28;20055;-67
2023/06/11 07:59:31;;;;;;;1.80;1.00;;;;;;;25.35;26.83;102564.50;5116395;28;20540;-67
2023/06/11 08:01:57;;;;;;;4.07;0.88;;;;;;;25.48;26.73;102564.13;5116913;28;20031;-67
2023/06/11 08:04:22;;;;;;;3.70;1.20;;;;;;;24.57;24.90;102561.72;5117705;28;20468;-67
2023/06/11 08:06:47;;;;;;;2.15;1.15;;;;;;;24.95;25.21;102551.81;5098898;28;20091;-66
2023/06/11 08:09:13;;;;;;;3.83;0.82;;;;;;;24.96;25.73;102561.72;5098519;28;20092;-67
2023/06/11 08:11:41;;;;;;;3.35;0.90;;;;;;;24.47;25.51;102548.63;5116523;28;20035;-67
2023/06/11 08:14:07;;;;;;;1.67;1.00;;;;;;;24.39;24.52;102554.50;5096476;28;20055;-67
2023/06/11 08:16:33;;;;;;;1.55;0.70;;;;;;;24.10;25.38;102548.19;5116171;28;20027;-67
2023/06/11 08:18:58;;;;;;;2.13;1.00;;;;;;;24.32;25.65;102556.56;5115799;28;20027;-66
2023/06/11 08:21:24;;;;;;;4.22;1.00;;;;;;;24.14;26.01;102555.72;5114966;28;20647;-67
2023/06/11 08:23:51;;;;;;;4.43;1.00;;;;;;;24.23;25.57;102545.13;5098323;28;20479;-67
2023/06/11 08:26:17;;;;;;;1.05;0.80;;;;;;;24.71;25.72;102560.28;5098768;28;20402;-67
2023/06/11 08:28:43;;;;;;;1.98;1.00;;;;;;;25.20;25.34;102552.19;5116918;28;20023;-67
2023/06/11 08:31:09;;;;;;;4.25;0.90;;;;;;;25.44;25.27;102551.94;5114795;28;20111;-67
2023/06/11 08:33:35;;;;;;;1.60;0.77;;;;;;;25.65;25.41;102544.75;5115978;28;20039;-67
2023/06/11 08:36:00;;;;;;;1.67;1.00;;;;;;;25.76;25.22;102538.22;5119714;28;20395;-67
2023/06/11 08:38:28;;;;;;;2.65;0.95;;;;;;;25.54;25.39;102543.81;5117109;28;20038;-66
2023/06/11 08:40:54;;;;;;;3.65;0.90;;;;;;;25.54;25.45;102539.13;5116613;28;20465;-67
2023/06/11 08:43:19;;;;;;;1.98;1.00;;;;;;;25.73;25.81;102542.38;5115425;28;20027;-67
2023/06/11 08:45:45;;;;;;;1.95;1.10;;;;;;;26.00;25.31;102544.31;5116717;28;20031;-67
2023/06/11 08:48:12;;;;;;;4.55;1.13;;;;;;;26.08;25.34;102535.56;5116661;28;20076;-67
2023/06/11 08:50:38;;;;;;;3.25;1.10;;;;;;;26.15;24.96;102530.66;5116608;28;20024;-67
2023/06/11 08:53:06;;;;;;;9.02;1.13;;;;;;;26.00;24.68;102539.63;5116513;28;20058;-67
2023/06/11 08:55:31;;;;;;;2.90;0.95;;;;;;;24.64;26.08;102534.00;5116637;28;20019;-67
2023/06/11 08:57:57;;;;;;;1.95;0.95;;;;;;;24.58;26.00;102527.59;5114957;28;20046;-67
2023/06/11 09:00:23;;;;;;;2.50;1.02;;;;;;;25.19;26.46;102531.22;5113526;28;20051;-68
2023/06/11 09:02:49;;;;;;;3.45;1.00;;;;;;;25.07;26.05;102527.75;5116490;28;20115;-67
2023/06/11 09:05:15;;;;;;;2.80;1.02;;;;;;;24.87;26.05;102527.44;5115118;28;20081;-67
2023/06/11 09:07:51;;;;;;;5.97;0.90;;;;;;;25.09;25.36;102526.38;5116305;28;20027;-67
2023/06/11 09:10:16;;;;;;;1.88;0.80;;;;;;;25.03;25.49;102521.94;5115001;28;20053;-67
2023/06/11 09:12:42;;;;;;;0.90;0.80;;;;;;;25.02;25.66;102519.41;5116351;28;20031;-67
2023/06/11 09:15:07;;;;;;;4.18;1.00;;;;;;;24.75;25.49;102522.06;5116099;28;20024;-67
2023/06/11 09:17:37;;;;;;;4.28;1.08;;;;;;;25.45;25.34;102529.63;5116132;28;20080;-68
2023/06/11 09:20:05;;;;;;;1.77;0.80;;;;;;;25.79;24.42;102518.41;5115864;28;20415;-66
2023/06/11 09:22:30;;;;;;;3.70;1.00;;;;;;;25.50;24.66;102515.09;5117345;28;20055;-67
2023/06/11 09:24:56;;;;;;;2.17;0.93;;;;;;;25.62;24.90;102528.72;5119850;28;20479;-67
2023/06/11 09:27:22;;;;;;;4.38;1.10;;;;;;;24.80;25.58;102511.97;5120496;28;20146;-67
2023/06/11 09:29:47;;;;;;;2.35;0.93;;;;;;;24.97;25.10;102516.59;5119037;28;20039;-67
2023/06/11 09:32:13;;;;;;;3.20;1.00;;;;;;;25.08;25.29;102527.47;5119922;28;20039;-67
2023/06/11 09:34:43;;;;;;;2.22;0.93;;;;;;;25.15;24.92;102526.50;5120197;28;20063;-67
2023/06/11 09:37:10;;;;;;;5.50;1.08;;;;;;;25.53;25.26;102515.41;5120315;28;20035;-69
2023/06/11 09:39:36;;;;;;;4.95;0.95;;;;;;;25.95;25.58;102519.44;5122553;28;20031;-76
2023/06/11 09:42:01;;;;;;;7.90;1.23;;;;;;;26.07;25.16;102517.34;5125023;28;20030;-67
2023/06/11 09:44:31;;;;;;;4.97;1.00;;;;;;;25.63;24.71;102506.41;5122879;28;20024;-67
2023/06/11 09:46:57;;;;;;;2.67;1.00;;;;;;;25.89;24.73;102514.97;5101871;28;20080;-68
2023/06/11 09:49:24;;;;;;;3.35;1.00;;;;;;;26.14;24.77;102511.63;5118874;28;20095;-67
2023/06/11 09:51:51;;;;;;;2.70;0.98;;;;;;;26.24;24.64;102512.53;5120109;28;20035;-67
2023/06/11 09:54:20;;;;;;;3.60;1.08;;;;;;;26.33;24.56;102499.09;5120361;28;20496;-67
2023/06/11 09:56:47;;;;;;;3.92;0.93;;;;;;;26.30;24.49;102504.31;5120269;27;20092;-67
2023/06/11 09:59:16;;;;;;;1.83;1.05;;;;;;;25.99;26.10;102506.78;5120595;28;20086;-67
2023/06/11 10:01:43;;;;;;;3.40;1.00;;;;;;;25.86;26.74;102496.19;5120300;28;20023;-67
2023/06/11 10:04:09;;;;;;;2.08;0.90;;;;;;;25.67;27.09;102503.97;5120003;28;20031;-67
2023/06/11 10:06:40;;;;;;;3.50;1.00;;;;;;;25.97;26.75;102504.31;5119971;28;20019;-67
2023/06/11 10:09:11;;;;;;;5.35;1.10;;;;;;;26.24;26.70;102506.19;5119855;28;20028;-67
2023/06/11 10:11:38;;;;;;;3.53;1.00;;;;;;;26.04;26.47;102501.31;5123035;28;20110;-68
2023/06/11 10:14:10;;;;;;;1.58;0.80;;;;;;;25.84;26.83;102513.00;5135669;28;20095;-68
2023/06/11 10:16:35;;;;;;;1.85;0.85;;;;;;;25.58;28.11;102502.75;5136061;28;20040;-70
2023/06/11 10:19:09;;;;;;;2.42;1.00;;;;;;;24.90;28.90;102500.25;5133887;28;20125;-67
2023/06/11 10:21:40;;;;;;;5.30;0.95;;;;;;;24.49;28.70;102505.16;5107757;28;20051;-71
2023/06/11 10:24:06;;;;;;;9.88;8.88;;;;;;;24.38;30.80;102489.53;5136040;28;20031;-68
2023/06/11 10:26:35;;;;;;;24.38;19.33;;;;;;;24.72;29.79;102501.38;5136304;28;20007;-69
2023/06/11 10:29:02;;;;;;;28.45;19.05;;;;;;;24.79;30.03;102495.69;5135142;28;20028;-68
2023/06/11 10:31:39;;;;;;;4.20;1.45;;;;;;;24.46;29.43;102502.91;5136159;28;20120;-69
2023/06/11 10:34:06;;;;;;;2.78;1.10;;;;;;;24.31;29.37;102503.47;5128665;28;20053;-68
2023/06/11 10:36:37;;;;;;;3.10;0.90;;;;;;;23.90;30.49;102493.66;5122201;28;20039;-66
2023/06/11 10:39:20;;;;;;;4.38;1.10;;;;;;;23.70;29.88;102472.16;5119606;28;20031;-67
2023/06/11 10:41:46;;;;;;;2.67;0.90;;;;;;;23.45;30.08;102481.56;5100495;28;20563;-66
2023/06/11 10:44:14;;;;;;;1.60;0.90;;;;;;;23.57;30.49;102497.16;5115009;28;20035;-67
2023/06/11 10:46:49;;;;;;;5.38;1.10;;;;;;;23.61;30.62;102490.09;5120891;28;20023;-67
2023/06/11 10:49:15;;;;;;;3.20;0.82;;;;;;;23.49;30.52;102483.81;5118801;28;20392;-67
2023/06/11 10:51:41;;;;;;;1.83;0.80;;;;;;;23.52;29.63;102491.56;5100232;28;20445;-67
2023/06/11 10:54:07;;;;;;;4.07;0.90;;;;;;;24.02;30.12;102490.88;5117211;28;20032;-67
2023/06/11 10:56:37;;;;;;;0.77;0.77;;;;;;;24.25;30.18;102487.13;5118907;28;20024;-67
2023/06/11 10:59:09;;;;;;;2.20;1.00;;;;;;;24.11;30.29;102489.38;5118298;28;20023;-67
2023/06/11 11:01:35;;;;;;;1.58;1.08;;;;;;;23.67;31.27;102484.47;5117240;28;20543;-67
2023/06/11 11:04:02;;;;;;;2.30;1.10;;;;;;;23.58;30.77;102483.19;5118243;28;20035;-66
2023/06/11 11:06:28;;;;;;;2.58;0.93;;;;;;;23.77;31.79;102480.25;5118301;28;20024;-67
2023/06/11 11:08:55;;;;;;;4.50;0.93;;;;;;;23.51;30.51;102466.00;5117879;28;20015;-67
2023/06/11 11:11:22;;;;;;;3.50;0.90;;;;;;;23.86;30.02;102476.84;5117048;28;20091;-67
2023/06/11 11:13:49;;;;;;;2.83;1.02;;;;;;;24.00;29.05;102474.59;5117864;28;20032;-67
2023/06/11 11:16:15;;;;;;;3.28;0.90;;;;;;;24.15;31.97;102482.28;5116633;28;20099;-67
2023/06/11 11:18:41;;;;;;;3.75;1.00;;;;;;;24.46;29.71;102483.63;5117654;28;20324;-67
2023/06/11 11:21:06;;;;;;;3.60;1.05;;;;;;;24.31;30.12;102478.72;5116321;28;20048;-67
2023/06/11 11:23:32;;;;;;;3.22;0.90;;;;;;;24.32;30.41;102463.03;5116673;28;20030;-66